seti.org alexa rank chart, seti.org alexa rank daily changes

seti.org alexa rank chart, seti.org alexa rank daily changes

seti.org
Actual rank:
151 822

RANK HISTORY

Date Rank Diff
2017/12/14 151 822 -2 027
2017/12/13 153 849 -5 313
2017/12/12 159 162 -4 444
2017/12/11 163 606 -2 551
2017/12/10 166 157 -806
2017/12/09 166 963 +132
2017/12/08 166 831 -9 098
2017/12/07 175 929 -2 097
2017/12/06 178 026 -2 350
2017/12/05 180 376 +1 596
2017/12/04 178 780 -4 001
2017/12/03 182 781 -100
2017/12/02 182 881 -8 082
2017/12/01 190 963 -5 057
2017/11/30 196 020 -7 581
2017/11/29 203 601 +2 939
2017/11/28 200 662 -4 970
2017/11/27 205 632 +2 519
2017/11/26 203 113 +1 381
2017/11/25 201 732 -3 940
2017/11/24 205 672 +7 198
2017/11/23 198 474 -479
2017/11/22 198 953 -17 939
2017/11/21 216 892 +4 507
2017/11/20 212 385 +4 362
2017/11/19 208 023 -2 121
2017/11/18 210 144 -5 344
2017/11/17 215 488 +1 212
2017/11/16 214 276 +2 264
2017/11/15 212 012 -791
2017/11/14 212 803 +5 292
2017/11/13 207 511 +1 799
2017/11/12 205 712 +2 933
2017/11/11 202 779 -1 743
2017/11/10 204 522 -4 577
2017/11/09 209 099 -1 505
2017/11/08 210 604 -886
2017/11/07 211 490 +380
2017/11/06 211 110 +3 083
2017/11/05 208 027 -3 006
2017/11/04 211 033 -2 105
2017/11/03 213 138 -3 707
2017/11/02 216 845 -704
2017/11/01 217 549 +2 601
2017/10/31 214 948 +3 040
2017/10/30 211 908 +344
2017/10/29 211 564 -4 599
2017/10/28 216 163 +5 627
2017/10/27 210 536 -6 098
2017/10/26 216 634 +4 422
2017/10/25 212 212 +3 792
2017/10/24 208 420 -4 307
2017/10/23 212 727 +2 533
2017/10/22 210 194 +5 492
2017/10/21 204 702 -771
2017/10/20 205 473 -1 397
2017/10/19 206 870 +3 782
2017/10/18 203 088 -684
2017/10/17 203 772 -1 313
2017/10/16 205 085

WIDGET FOR YOUR SITE

DOMAINS WITH THE NEAREST RANK

Domain Rank
wanspace.jp 151 817
nsu.ac.kr 151 818
dxper.net 151 819
mzo.hr 151 820
tushkan.cc 151 821
seti.org 151 822
my-picture.co.uk 151 823
moving-picture.com 151 824
etimo.it 151 825
burgerking.fr 151 826
footballmanagerstory.com 151 827

DOMAINS WITH THE NEAREST RANK BY TLD .org

Domain Rank
adoptuskids.org 151 785
hard-reset.org 151 794
biotaxa.org 151 798
tcpdf.org 151 802
22dakika.org 151 816
seti.org 151 822
springscs.org 151 862
aha.org 151 866
nssd.org 151 911
crosstec.org 151 922
concordiaonline.org 152 002